Rainelle, WV (25962)

3:59 PM EDT on July 26, 2014 (GMT -0400)
KWVALDER3 Elev 1719 ft | 37.83 °N, 80.64 °W | Change Station

Current weather conditions updated 2 seconds ago

Clear
Clear
89.6 °F
Feels Like 88 °F
N
4.0
Wind Variable Wind from West
Gusts 5.1 mph

Today is forecast to be Warmer than yesterday. Thunderstorms.

Today
High -- | Low -- °F
--% Chance of Precip.
Yesterday
High -- | Low -- °F
Precip. -- in
6:21 AM 8:37 PM
Waning Crescent, 0% visible
Pressure 30.03 in
Visibility 10.0 miles
Clouds Clear
Heat Index 88 °F
Dew Point 57 °F
Humidity 34%
Rainfall 0.00 in
Snow Depth Not available.
UV 9 out of 12
Pollen 6.30 out of 12
Air Quality Not available.
Flu Activity Not available.
METAR KLWB 261935Z AUTO 00000KT 10SM CLR 29/10 A3003 RMK AO2 T02900099

More Conditions Fewer Conditions

Pressure 30.03 in
Visibility 10.0 miles
Clouds Clear
Heat Index 88 °F
Dew Point 57 °F
Humidity 34%
Rainfall 0.00 in
Snow Depth Not available.
UV 9 out of 12
Pollen 6.30 out of 12
Air Quality Not available.
Flu Activity Not available.
METAR KLWB 261935Z AUTO 00000KT 10SM CLR 29/10 A3003 RMK AO2 T02900099

More Conditions Fewer Conditions

10-Day Weather Forecast

Almanac

Astronomy

Jul. 26, 2014 Rise Set
Actual Time 6:21 AM EDT 8:37 PM EDT
Civil Twilight 5:51 AM EDT 9:07 PM EDT
Nautical Twilight 5:14 AM EDT 9:43 PM EDT
Astronomical Twilight 4:34 AM EDT 10:23 PM EDT
Moon 6:11 AM EDT 8:13 PM EDT
Length of Visible Light 15h 15m
Length of Day
14h 16m
Tomorrow will be 1m 40s shorter.
Waning Crescent, 0% of the Moon is Illuminated
Today
Waning Crescent
Jul 26
New
Aug 3
First Quarter
Aug 10
Full
Aug 17
Last Quarter

Today's Extremes

State Highs State Lows

Community

WunderPhotos

Upload Photos

1,737,685 photos uploaded!

Nearby

Snow Depth

Station Depth Elevation
No new snow has been reported.

Earthquake Activity

City Distance Mag. Time & Date
No recent earthquake activity has been reported nearby.
Minimum magnitude displayed is 2.5.

Coastal Water Temperatures

Place Temperature
No Stations Reporting

Nearby Weather Stations

Station Location Temp. Heat Index Dew Point Humidity Wind Precip. Elev Updated Type
Blue Sulphur Springs, WV 89.6 °F 88 °F 57 °F 34% West  at  4.0 mph 0.00 in / hr 1719 ft 3:59 PM EDT Rapid Fire
Mt Nebo, WV 84.1 °F 85 °F 64 °F 51% SSW  at  2.0 mph 0.00 in / hr 2195 ft 3:59 PM EDT Rapid Fire
F.I.T. - Oyler Ave., Oak Hill, WV 83.6 °F 85 °F 64 °F 52% South  at  0.0 mph 0.00 in / hr 1988 ft 3:59 PM EDT Rapid Fire
Bluestone Dam - Meador, Hinton, WV 88.0 °F 86 °F 54 °F 32% East  at  8.3 mph 0.00 in / hr 1394 ft 3:30 PM EDT Normal

Show More Stations Show Fewer Stations